Hangzhou Bay Bridge — 3FMK3 — position and weather

sailwx.info

Track history (hours):
 
Tides and Currents Weather Stations Pressure Air Temp Water Temp Dewpoint Dewpoint Depression Visibility Wind Speed Wind Dir Waves Ship Positions

Hangzhou Bay Bridge

Last reported at 2018-Jul-23 03:12 UTC. Time now 2018-Jul-23 13:41 UTC.
Position N 01°27' E 104°31'.

Length 335 m; draft 12.6 m.

Type: Ship (hazmat cat D). MMSI: 373932000.

Date/timePositionNaut miles runAvg speedWind from/ knotsBaromVisibWave heightAir tempDewpointWater temp
2018-Jul-23 03:12N 01°27' E 104°31'417.4
2018-Jul-23 02:59N 01°25' E 104°28'817.2
2018-Jul-23 02:30N 01°19' E 104°22'916.2
2018-Jul-23 01:57N 01°16' E 104°14'816.9
2018-Jul-23 01:28N 01°15' E 104°06'816.4
2018-Jul-23 01:00N 01°14' E 103°58'612.6
2018-Jul-23 00:30N 01°12' E 103°53'4 9.0
2018-Jul-23 00:01N 01°13' E 103°48'510.7
2018-Jul-22 23:30N 01°17' E 103°45'1 2.4
2018-Jul-22 23:01N 01°17' E 103°46'0 0.0
2018-Jul-22 22:30N 01°17' E 103°46'0 0.0
2018-Jul-22 22:01N 01°17' E 103°46'0 0.0
2018-Jul-22 21:30N 01°17' E 103°46'0 0.0
2018-Jul-22 21:00N 01°17' E 103°46'0 0.0
2018-Jul-22 20:26N 01°17' E 103°46'0 0.0
2018-Jul-22 19:54N 01°17' E 103°46'0 0.0
2018-Jul-22 19:31N 01°17' E 103°46'0 0.0
2018-Jul-22 18:55N 01°17' E 103°46'0 0.0
2018-Jul-22 18:31N 01°17' E 103°46'0 0.0
2018-Jul-22 17:58N 01°17' E 103°46'0 0.0
2018-Jul-22 17:30N 01°17' E 103°46'0 0.0
2018-Jul-22 17:01N 01°17' E 103°46'0 0.0
2018-Jul-22 16:31N 01°17' E 103°46'0 0.0
2018-Jul-22 16:01N 01°17' E 103°46'0 0.0
2018-Jul-22 15:00N 01°17' E 103°46'0 0.0
2018-Jul-22 14:25N 01°17' E 103°46'0 0.0
2018-Jul-22 14:01N 01°17' E 103°46'0 0.0
2018-Jul-22 13:31N 01°17' E 103°46'0 0.0
2018-Jul-22 13:00N 01°17' E 103°46'0 0.0
2018-Jul-22 12:31N 01°17' E 103°46'0 0.0
2018-Jul-22 11:58N 01°17' E 103°46'0 0.0
2018-Jul-22 11:28N 01°17' E 103°46'0 0.0
2018-Jul-22 11:00N 01°17' E 103°46'0 0.0
2018-Jul-22 10:31N 01°17' E 103°46'0 0.0
2018-Jul-22 10:01N 01°17' E 103°46'0 0.0
2018-Jul-22 09:31N 01°17' E 103°46'0 0.0
2018-Jul-22 09:01N 01°17' E 103°46'0 0.0
2018-Jul-22 08:30N 01°17' E 103°46'0 0.0
2018-Jul-22 08:01N 01°17' E 103°46'0 0.0
2018-Jul-22 07:31N 01°17' E 103°46'0 0.1
2018-Jul-22 07:01N 01°17' E 103°46'0 0.1
2018-Jul-22 06:31N 01°17' E 103°46'0 0.0
2018-Jul-22 06:01N 01°17' E 103°46'0 0.0
2018-Jul-22 05:31N 01°17' E 103°46'0 0.0
2018-Jul-22 05:01N 01°17' E 103°46'0 0.0
2018-Jul-22 04:30N 01°17' E 103°46'0 0.0
2018-Jul-22 04:00N 01°17' E 103°46'0 0.0
2018-Jul-22 03:31N 01°17' E 103°46'0 0.0
2018-Jul-22 03:00N 01°17' E 103°46'0 0.1
2018-Jul-22 02:31N 01°17' E 103°46'0 0.0
2018-Jul-22 02:00N 01°17' E 103°46'0 0.0
2018-Jul-22 01:31N 01°17' E 103°46'0 0.0
2018-Jul-22 01:00N 01°17' E 103°46'0 0.0
2018-Jul-22 00:30N 01°17' E 103°46'0 0.2
2018-Jul-22 00:01N 01°17' E 103°46'1 1.8
2018-Jul-21 23:30N 01°17' E 103°45'2 4.3
2018-Jul-21 23:00N 01°15' E 103°46'510.0
2018-Jul-21 22:30N 01°13' E 103°42'510.4
2018-Jul-21 22:00N 01°12' E 103°37'3 5.8
2018-Jul-21 21:31N 01°12' E 103°34'3 5.7
2018-Jul-21 21:00N 01°11' E 103°31'3 6.3
2018-Jul-21 20:30N 01°10' E 103°28'5 9.3
2018-Jul-21 19:59N 01°13' E 103°24'5 9.5
2018-Jul-21 19:30N 01°16' E 103°20'611.6
2018-Jul-21 18:58N 01°20' E 103°16'714.5
2018-Jul-21 18:27N 01°24' E 103°10'815.8
2018-Jul-21 17:58N 01°28' E 103°04'  
Track history (hours):
 
Tides and Currents Weather Stations Pressure Air Temp Water Temp Dewpoint Dewpoint Depression Visibility Wind Speed Wind Dir Waves Ship Positions

Hangzhou Bay Bridge

Last reported at 2018-Jul-23 03:12 UTC. Time now 2018-Jul-23 13:41 UTC.
Position N 01°27' E 104°31'.

Length 335 m; draft 12.6 m.

Type: Ship (hazmat cat D). MMSI: 373932000.

Date/timePositionNaut miles runAvg speedWind from/ knotsBaromVisibWave heightAir tempDewpointWater temp
2018-Jul-23 03:12N 01°27' E 104°31'417.4
2018-Jul-23 02:59N 01°25' E 104°28'817.2
2018-Jul-23 02:30N 01°19' E 104°22'916.2
2018-Jul-23 01:57N 01°16' E 104°14'816.9
2018-Jul-23 01:28N 01°15' E 104°06'816.4
2018-Jul-23 01:00N 01°14' E 103°58'612.6
2018-Jul-23 00:30N 01°12' E 103°53'4 9.0
2018-Jul-23 00:01N 01°13' E 103°48'510.7
2018-Jul-22 23:30N 01°17' E 103°45'1 2.4
2018-Jul-22 23:01N 01°17' E 103°46'0 0.0
2018-Jul-22 22:30N 01°17' E 103°46'0 0.0
2018-Jul-22 22:01N 01°17' E 103°46'0 0.0
2018-Jul-22 21:30N 01°17' E 103°46'0 0.0
2018-Jul-22 21:00N 01°17' E 103°46'0 0.0
2018-Jul-22 20:26N 01°17' E 103°46'0 0.0
2018-Jul-22 19:54N 01°17' E 103°46'0 0.0
2018-Jul-22 19:31N 01°17' E 103°46'0 0.0
2018-Jul-22 18:55N 01°17' E 103°46'0 0.0
2018-Jul-22 18:31N 01°17' E 103°46'0 0.0
2018-Jul-22 17:58N 01°17' E 103°46'0 0.0
2018-Jul-22 17:30N 01°17' E 103°46'0 0.0
2018-Jul-22 17:01N 01°17' E 103°46'0 0.0
2018-Jul-22 16:31N 01°17' E 103°46'0 0.0
2018-Jul-22 16:01N 01°17' E 103°46'0 0.0
2018-Jul-22 15:00N 01°17' E 103°46'0 0.0
2018-Jul-22 14:25N 01°17' E 103°46'0 0.0
2018-Jul-22 14:01N 01°17' E 103°46'0 0.0
2018-Jul-22 13:31N 01°17' E 103°46'0 0.0
2018-Jul-22 13:00N 01°17' E 103°46'0 0.0
2018-Jul-22 12:31N 01°17' E 103°46'0 0.0
2018-Jul-22 11:58N 01°17' E 103°46'0 0.0
2018-Jul-22 11:28N 01°17' E 103°46'0 0.0
2018-Jul-22 11:00N 01°17' E 103°46'0 0.0
2018-Jul-22 10:31N 01°17' E 103°46'0 0.0
2018-Jul-22 10:01N 01°17' E 103°46'0 0.0
2018-Jul-22 09:31N 01°17' E 103°46'0 0.0
2018-Jul-22 09:01N 01°17' E 103°46'0 0.0
2018-Jul-22 08:30N 01°17' E 103°46'0 0.0
2018-Jul-22 08:01N 01°17' E 103°46'0 0.0
2018-Jul-22 07:31N 01°17' E 103°46'0 0.1
2018-Jul-22 07:01N 01°17' E 103°46'0 0.1
2018-Jul-22 06:31N 01°17' E 103°46'0 0.0
2018-Jul-22 06:01N 01°17' E 103°46'0 0.0
2018-Jul-22 05:31N 01°17' E 103°46'0 0.0
2018-Jul-22 05:01N 01°17' E 103°46'0 0.0
2018-Jul-22 04:30N 01°17' E 103°46'0 0.0
2018-Jul-22 04:00N 01°17' E 103°46'0 0.0
2018-Jul-22 03:31N 01°17' E 103°46'0 0.0
2018-Jul-22 03:00N 01°17' E 103°46'0 0.1
2018-Jul-22 02:31N 01°17' E 103°46'0 0.0
2018-Jul-22 02:00N 01°17' E 103°46'0 0.0
2018-Jul-22 01:31N 01°17' E 103°46'0 0.0
2018-Jul-22 01:00N 01°17' E 103°46'0 0.0
2018-Jul-22 00:30N 01°17' E 103°46'0 0.2
2018-Jul-22 00:01N 01°17' E 103°46'1 1.8
2018-Jul-21 23:30N 01°17' E 103°45'2 4.3
2018-Jul-21 23:00N 01°15' E 103°46'510.0
2018-Jul-21 22:30N 01°13' E 103°42'510.4
2018-Jul-21 22:00N 01°12' E 103°37'3 5.8
2018-Jul-21 21:31N 01°12' E 103°34'3 5.7
2018-Jul-21 21:00N 01°11' E 103°31'3 6.3
2018-Jul-21 20:30N 01°10' E 103°28'5 9.3
2018-Jul-21 19:59N 01°13' E 103°24'5 9.5
2018-Jul-21 19:30N 01°16' E 103°20'611.6
2018-Jul-21 18:58N 01°20' E 103°16'714.5
2018-Jul-21 18:27N 01°24' E 103°10'815.8
2018-Jul-21 17:58N 01°28' E 103°04'  

Dump ship's entire track history